PDT,Max TemperatureF,Mean TemperatureF,Min TemperatureF,Max Dew PointF,MeanDew PointF,Min DewpointF,Max Humidity, Mean Humidity, Min Humidity, Max Sea Level PressureIn, Mean Sea Level PressureIn, Min Sea Level PressureIn, Max VisibilityMiles, Mean VisibilityMiles, Min VisibilityMiles, Max Wind SpeedMPH, Mean Wind SpeedMPH, Max Gust SpeedMPH,PrecipitationIn, CloudCover, Events, WindDirDegrees
2013-6-1,77,61,44,55,50,44,100,71,41,30.24,30.13,30.02,10,10,10,13,2,17,T,2,Rain,320
2013-6-2,72,64,55,53,51,48,83,66,49,30.09,30.06,30.03,10,10,10,15,6,18,0.00,6,,320
2013-6-3,76,62,48,53,50,47,93,66,38,30.11,30.07,30.02,10,10,10,15,6,18,0.00,1,,353
2013-6-4,83,65,47,55,51,46,83,59,34,30.08,30.03,29.95,10,10,10,12,6,15,0.00,0,,352
2013-6-5,85,69,53,60,53,48,93,62,31,30.07,30.01,29.95,10,10,10,12,4,16,0.00,0,,360
2013-6-6,85,71,57,57,54,49,86,62,37,30.05,30.01,29.97,10,10,10,15,6,17,0.00,0,,340
2013-6-7,81,65,49,58,50,38,89,57,25,30.14,30.09,30.05,10,10,10,17,3,22,0.00,2,,312
2013-6-8,80,66,51,53,48,41,93,61,28,30.17,30.11,30.03,10,10,10,14,8,17,0.00,0,,356
2013-6-9,76,64,51,50,48,46,83,61,38,30.10,30.05,29.97,10,10,10,17,10,21,0.00,0,,355
2013-6-10,72,59,46,48,44,42,86,62,37,30.02,29.97,29.90,10,10,10,15,8,26,0.00,2,,344
2013-6-11,66,60,53,49,45,42,77,63,48,30.16,30.09,30.01,10,10,10,16,5,20,T,7,Rain,284
2013-6-12,65,58,51,48,46,45,83,68,52,30.20,30.17,30.14,10,10,10,14,3,18,0.00,7,,262
2013-6-13,63,57,50,54,50,46,93,83,72,30.30,30.23,30.18,10,9,4,14,7,17,0.22,7,Rain,172
2013-6-14,71,57,42,51,48,44,100,74,47,30.31,30.16,29.98,10,10,10,17,6,21,0.00,1,,12
2013-6-15,81,64,47,55,50,41,100,63,25,30.03,29.95,29.91,10,10,10,14,3,16,0.00,0,,294
2013-6-16,78,63,48,55,52,48,100,73,46,30.09,30.07,30.03,10,10,10,13,4,14,0.00,3,,205
2013-6-17,77,63,48,53,50,48,100,69,38,30.05,30.00,29.96,10,10,10,20,5,24,0.00,3,,209
2013-6-18,68,59,50,53,49,46,89,69,48,30.02,29.98,29.95,10,10,10,16,8,22,0.02,5,Rain-Thunderstorm,209
2013-6-19,67,57,46,54,49,45,93,73,52,30.11,30.02,29.97,10,10,7,17,5,23,0.16,6,Rain,198
2013-6-20,69,59,49,55,50,47,93,74,55,30.14,30.09,30.07,10,10,10,14,6,17,0.01,6,Rain,200
2013-6-21,73,64,54,53,49,46,86,64,41,30.18,30.14,30.11,10,10,10,9,2,12,0.00,6,,8
2013-6-22,82,65,48,53,49,35,100,60,20,30.11,29.99,29.85,10,10,2,9,2,13,0.00,1,,238
2013-6-23,72,66,59,63,59,46,93,73,52,29.85,29.72,29.65,10,10,2,10,4,14,0.09,8,Rain,169
2013-6-24,66,61,56,58,54,52,93,76,58,29.72,29.70,29.68,10,10,10,17,8,23,0.01,7,Rain,186
2013-6-25,71,64,56,61,57,52,97,78,59,29.86,29.77,29.68,10,9,1,18,6,24,0.33,7,Rain,171
2013-6-26,73,66,59,61,58,55,100,79,57,30.03,29.96,29.86,10,9,2,14,8,18,0.15,7,Rain,166
2013-6-27,82,71,60,61,60,59,97,72,47,30.14,30.09,30.01,10,10,10,13,4,17,0.00,5,,294
2013-6-28,91,75,59,64,60,53,97,63,29,30.13,30.08,30.01,10,10,10,13,2,17,0.00,0,,277
2013-6-29,90,76,61,62,58,52,78,55,32,30.10,30.04,29.95,10,10,10,13,3,22,0.00,0,,61
2013-6-30,96,78,60,65,61,58,93,63,32,29.96,29.90,29.83,10,10,10,15,3,20,0.00,0,,282